Time;durP1;ratioP1;P1;durP2;ratioP2;P2;SDS_P1;SDS_P2;PMS_P1;PMS_P2;Temp;Humidity;BMP_temperature;BMP_pressure;BME280_temperature;BME280_humidity;BME280_pressure;Samples;Min_cycle;Max_cycle;Signal;HPM_P1;HPM_P2
2023/09/16 00:01:19;;;;;;;19.52;3.95;;;;;;;16.71;100.00;100360.47;5038180;28;20234;-80
2023/09/16 00:03:46;;;;;;;18.08;4.03;;;;;;;16.66;100.00;100365.91;5032814;28;20394;-80
2023/09/16 00:06:14;;;;;;;28.40;6.00;;;;;;;16.57;100.00;100360.69;5029799;28;20296;-79
2023/09/16 00:08:42;;;;;;;24.50;5.03;;;;;;;16.64;100.00;100365.91;5038101;28;20642;-80
2023/09/16 00:11:10;;;;;;;33.53;7.55;;;;;;;16.49;100.00;100366.16;5021704;28;20267;-80
2023/09/16 00:13:37;;;;;;;28.20;6.18;;;;;;;16.54;100.00;100374.09;5019383;28;20226;-80
2023/09/16 00:16:05;;;;;;;42.10;10.07;;;;;;;16.42;100.00;100375.16;5025880;28;20223;-80
2023/09/16 00:18:32;;;;;;;27.83;5.55;;;;;;;16.42;100.00;100375.16;5033509;28;20223;-79
2023/09/16 00:20:59;;;;;;;58.22;14.75;;;;;;;16.37;100.00;100365.47;5040885;28;20226;-80
2023/09/16 00:23:25;;;;;;;16.92;3.80;;;;;;;16.29;100.00;100374.47;5043975;28;20237;-80
2023/09/16 00:25:52;;;;;;;36.65;8.70;;;;;;;16.09;100.00;100367.66;5030727;28;20226;-80
2023/09/16 00:28:19;;;;;;;22.17;4.47;;;;;;;16.12;100.00;100372.97;5038392;28;20230;-80
2023/09/16 00:30:46;;;;;;;23.73;5.63;;;;;;;16.18;100.00;100379.09;5032468;28;20229;-80
2023/09/16 00:33:14;;;;;;;24.58;5.28;;;;;;;16.18;100.00;100387.09;5033284;28;20260;-80
2023/09/16 00:35:40;;;;;;;32.10;6.97;;;;;;;15.99;100.00;100381.13;5041176;28;20230;-80
2023/09/16 00:38:08;;;;;;;54.70;13.70;;;;;;;16.11;100.00;100393.41;5043047;28;20226;-80
2023/09/16 00:40:36;;;;;;;25.20;4.97;;;;;;;16.05;100.00;100398.84;5045296;28;20248;-80
2023/09/16 00:43:03;;;;;;;42.50;8.05;;;;;;;15.90;100.00;100389.25;5017450;28;20260;-79
2023/09/16 00:45:30;;;;;;;29.10;5.93;;;;;;;15.87;100.00;100385.75;5036671;28;20291;-79
2023/09/16 00:47:57;;;;;;;50.50;12.25;;;;;;;15.86;100.00;100395.53;5047841;28;20252;-80
2023/09/16 00:50:24;;;;;;;21.30;4.53;;;;;;;15.85;100.00;100396.44;5047222;28;20236;-79
2023/09/16 00:52:54;;;;;;;30.98;6.00;;;;;;;15.79;100.00;100401.84;5006974;28;20232;-80
2023/09/16 00:55:21;;;;;;;25.30;5.43;;;;;;;15.79;100.00;100409.84;5048426;28;20226;-79
2023/09/16 00:57:49;;;;;;;22.58;5.47;;;;;;;15.81;100.00;100415.16;5046654;28;20755;-79
2023/09/16 01:00:16;;;;;;;34.28;14.10;;;;;;;15.82;100.00;100419.59;5046751;28;20259;-79
2023/09/16 01:02:44;;;;;;;18.67;3.80;;;;;;;15.81;100.00;100420.50;5008544;28;20597;-80
2023/09/16 01:05:17;;;;;;;27.23;5.82;;;;;;;15.80;100.00;100422.28;5028714;28;20300;-79
2023/09/16 01:07:47;;;;;;;23.27;4.97;;;;;;;15.81;100.00;100417.84;5041201;28;20788;-80
2023/09/16 01:10:15;;;;;;;30.48;6.32;;;;;;;15.79;100.00;100431.19;5036884;28;20234;-79
2023/09/16 01:12:42;;;;;;;32.13;6.75;;;;;;;15.80;100.00;100429.41;5035499;28;20226;-80
2023/09/16 01:15:11;;;;;;;21.50;4.50;;;;;;;15.77;100.00;100438.31;5034988;28;20784;-79
2023/09/16 01:17:46;;;;;;;19.38;4.15;;;;;;;15.72;100.00;100437.50;5023390;28;20249;-80
2023/09/16 01:20:15;;;;;;;22.55;4.57;;;;;;;15.77;100.00;100443.66;5019106;28;20838;-80
2023/09/16 01:22:45;;;;;;;27.38;5.82;;;;;;;15.77;100.00;100449.00;5035145;28;20271;-80
2023/09/16 01:25:14;;;;;;;27.92;5.93;;;;;;;15.55;100.00;100434.97;5029829;28;20234;-80
2023/09/16 01:27:42;;;;;;;29.95;6.20;;;;;;;15.55;100.00;100445.63;5041935;28;20234;-79
2023/09/16 01:30:09;;;;;;;27.38;6.18;;;;;;;15.43;100.00;100440.44;5033514;28;20264;-79
2023/09/16 01:32:50;;;;;;;37.08;7.13;;;;;;;15.45;100.00;100446.63;5045056;28;20239;-79
2023/09/16 01:35:18;;;;;;;25.73;5.30;;;;;;;15.51;100.00;100456.34;5021247;28;20269;-80
2023/09/16 01:37:46;;;;;;;28.05;5.63;;;;;;;15.44;100.00;100446.63;5037949;28;20305;-80
2023/09/16 01:40:14;;;;;;;18.15;3.72;;;;;;;15.36;100.00;100452.06;5021022;28;20288;-80
2023/09/16 01:42:42;;;;;;;76.32;15.00;;;;;;;15.33;100.00;100458.28;5024480;28;20226;-79
2023/09/16 01:45:12;;;;;;;38.88;7.78;;;;;;;15.27;100.00;100455.69;5025990;28;20230;-79
2023/09/16 01:47:38;;;;;;;21.63;4.75;;;;;;;15.32;100.00;100469.84;5044906;28;20234;-80
2023/09/16 01:50:06;;;;;;;62.83;14.90;;;;;;;15.41;100.00;100474.19;5037245;28;20230;-80
2023/09/16 01:52:32;;;;;;;30.17;6.22;;;;;;;15.35;100.00;100480.47;5044735;28;20649;-80
2023/09/16 01:54:59;;;;;;;51.72;12.23;;;;;;;15.27;100.00;100474.34;5017756;28;20234;-79
2023/09/16 01:57:26;;;;;;;18.23;3.92;;;;;;;15.18;100.00;100481.53;5033295;28;20230;-80
2023/09/16 01:59:53;;;;;;;30.50;6.97;;;;;;;15.24;100.00;100484.13;5032487;28;20226;-80
2023/09/16 02:02:20;;;;;;;29.75;19.20;;;;;;;15.29;100.00;100490.31;5030251;28;20235;-80
2023/09/16 02:04:47;;;;;;;26.20;5.45;;;;;;;15.47;100.00;100507.91;5037205;28;20231;-79
2023/09/16 02:07:13;;;;;;;21.35;4.55;;;;;;;15.44;100.00;100508.81;5022988;28;20285;-80
2023/09/16 02:09:41;;;;;;;22.95;4.82;;;;;;;15.36;100.00;100503.56;5028786;28;20301;-80
2023/09/16 02:12:08;;;;;;;64.13;14.68;;;;;;;15.32;100.00;100506.28;5031043;28;20359;-79
2023/09/16 02:14:41;;;;;;;27.70;5.85;;;;;;;15.24;100.00;100502.78;5045504;28;20283;-80
2023/09/16 02:17:07;;;;;;;55.85;13.52;;;;;;;15.27;100.00;100508.97;5046241;28;20712;-79
2023/09/16 02:19:34;;;;;;;23.85;5.20;;;;;;;15.19;100.00;100508.16;5049817;28;20230;-81
2023/09/16 02:22:01;;;;;;;33.90;7.68;;;;;;;15.15;100.00;100509.09;5043220;28;20230;-82
2023/09/16 02:24:28;;;;;;;14.02;3.17;;;;;;;15.29;100.00;100522.28;5033172;28;20254;-82
2023/09/16 02:26:54;;;;;;;39.65;9.30;;;;;;;15.16;100.00;100524.16;5037702;28;20235;-82
2023/09/16 02:29:21;;;;;;;25.02;4.97;;;;;;;15.10;100.00;100518.00;5049919;28;20222;-79
2023/09/16 02:31:49;;;;;;;19.60;4.15;;;;;;;15.07;100.00;100523.34;5041162;28;20245;-79
2023/09/16 02:34:16;;;;;;;24.88;4.65;;;;;;;15.10;100.00;100534.00;5035085;28;20258;-80
2023/09/16 02:36:42;;;;;;;47.20;42.72;;;;;;;14.97;100.00;100527.88;5040876;28;20285;-82
2023/09/16 02:39:09;;;;;;;27.95;5.97;;;;;;;15.03;100.00;100530.50;5031392;28;20257;-82
2023/09/16 02:41:36;;;;;;;37.20;15.13;;;;;;;14.96;100.00;100534.97;5044069;28;20222;-82
2023/09/16 02:44:03;;;;;;;59.63;16.33;;;;;;;14.98;100.00;100535.84;5047204;28;20283;-80
2023/09/16 02:46:29;;;;;;;25.23;5.15;;;;;;;14.99;100.00;100545.59;5047385;28;20241;-80
2023/09/16 02:48:57;;;;;;;59.97;13.40;;;;;;;14.95;100.00;100546.53;5038639;28;20289;-79
2023/09/16 02:51:24;;;;;;;28.25;15.55;;;;;;;14.92;100.00;100551.88;5036032;28;20318;-80
2023/09/16 02:53:54;;;;;;;29.10;6.20;;;;;;;14.87;100.00;100551.03;5039586;28;20234;-80
2023/09/16 02:56:21;;;;;;;23.92;5.03;;;;;;;14.93;100.00;100547.44;5040263;28;20234;-80
2023/09/16 02:58:47;;;;;;;24.08;5.78;;;;;;;14.93;100.00;100558.09;5039820;28;20633;-81
2023/09/16 03:01:14;;;;;;;26.35;5.20;;;;;;;14.86;100.00;100554.56;5022991;28;20300;-80
2023/09/16 03:03:43;;;;;;;26.05;5.57;;;;;;;14.79;100.00;100547.53;5037099;28;20240;-80
2023/09/16 03:06:10;;;;;;;20.15;4.22;;;;;;;14.78;100.00;100553.75;5025138;28;20233;-81
2023/09/16 03:08:37;;;;;;;29.45;6.18;;;;;;;14.83;100.00;100553.72;5030669;28;20242;-80
2023/09/16 03:11:04;;;;;;;55.63;12.55;;;;;;;14.82;100.00;100563.47;5039790;28;20237;-80
2023/09/16 03:13:32;;;;;;;26.92;9.20;;;;;;;14.77;100.00;100567.06;5038891;28;20234;-81
2023/09/16 03:16:18;;;;;;;58.60;21.65;;;;;;;14.79;100.00;100563.50;5028213;28;20227;-81
2023/09/16 03:18:46;;;;;;;23.17;4.63;;;;;;;14.66;100.00;100559.13;5024121;28;20235;-80
2023/09/16 03:21:15;;;;;;;23.40;4.75;;;;;;;14.64;100.00;100559.16;5031274;28;20228;-81
2023/09/16 03:23:42;;;;;;;43.88;8.90;;;;;;;14.66;100.00;100570.66;5042337;28;20225;-80
2023/09/16 03:26:10;;;;;;;28.00;6.05;;;;;;;14.73;100.00;100567.09;5031440;28;20241;-81
2023/09/16 03:28:41;;;;;;;18.65;4.13;;;;;;;14.75;100.00;100574.19;5043801;28;20226;-81
2023/09/16 03:31:08;;;;;;;58.45;14.65;;;;;;;14.69;100.00;100572.44;5027555;28;20237;-80
2023/09/16 03:33:36;;;;;;;20.98;4.78;;;;;;;14.68;100.00;100574.22;5037751;28;20239;-80
2023/09/16 03:36:06;;;;;;;58.38;13.65;;;;;;;14.64;100.00;100571.56;5024154;28;20294;-81
2023/09/16 03:38:35;;;;;;;30.17;7.68;;;;;;;14.64;100.00;100567.13;5032070;28;20626;-80
2023/09/16 03:41:02;;;;;;;65.95;15.63;;;;;;;14.56;100.00;100565.41;5041093;28;20236;-81
2023/09/16 03:43:29;;;;;;;41.22;8.70;;;;;;;14.52;100.00;100564.53;5042688;28;20238;-81
2023/09/16 03:45:55;;;;;;;62.45;14.65;;;;;;;14.53;100.00;100563.66;5027948;28;20258;-81
2023/09/16 03:48:22;;;;;;;25.90;5.28;;;;;;;14.54;100.00;100565.41;5042903;28;20264;-80
2023/09/16 03:50:49;;;;;;;41.97;8.70;;;;;;;14.56;100.00;100565.41;5037699;28;20228;-80
2023/09/16 03:53:18;;;;;;;33.75;6.82;;;;;;;14.46;100.00;100561.03;5039537;28;20241;-80
2023/09/16 03:55:57;;;;;;;65.00;14.73;;;;;;;14.46;100.00;100563.69;5022863;28;20234;-81
2023/09/16 03:58:24;;;;;;;29.38;5.85;;;;;;;14.34;100.00;100561.94;5014829;28;20284;-81
2023/09/16 04:00:50;;;;;;;25.52;5.07;;;;;;;14.29;100.00;100561.03;5014188;28;20229;-81
2023/09/16 04:03:17;;;;;;;18.13;3.90;;;;;;;14.40;100.00;100572.53;5038069;28;20243;-80
2023/09/16 04:05:44;;;;;;;15.95;3.65;;;;;;;14.33;100.00;100566.38;5043211;28;20238;-81
2023/09/16 04:08:11;;;;;;;29.08;6.20;;;;;;;14.24;100.00;100558.38;5040054;28;20242;-80
2023/09/16 04:10:38;;;;;;;26.83;5.63;;;;;;;14.19;100.00;100561.97;5040390;28;20230;-80
2023/09/16 04:13:04;;;;;;;87.18;16.33;;;;;;;14.21;100.00;100557.53;5033818;28;20242;-81
2023/09/16 04:15:31;;;;;;;22.20;4.60;;;;;;;14.24;100.00;100561.06;5043441;28;20245;-80
2023/09/16 04:17:58;;;;;;;63.58;11.02;;;;;;;14.29;100.00;100569.91;5038136;28;20230;-80
2023/09/16 04:20:25;;;;;;;25.00;5.68;;;;;;;14.36;100.00;100581.44;5040011;28;20266;-81
2023/09/16 04:22:52;;;;;;;26.83;5.72;;;;;;;14.32;100.00;100577.91;5023178;28;20233;-81
2023/09/16 04:25:19;;;;;;;18.05;4.20;;;;;;;14.28;100.00;100572.56;5047789;28;20295;-81
2023/09/16 04:27:45;;;;;;;18.05;3.88;;;;;;;14.13;100.00;100569.97;5030965;28;20235;-81
2023/09/16 04:30:12;;;;;;;22.40;5.05;;;;;;;14.01;100.00;100570.88;5016452;28;20239;-81
2023/09/16 04:32:40;;;;;;;26.00;6.07;;;;;;;13.94;100.00;100564.69;5030306;28;20239;-80
2023/09/16 04:35:07;;;;;;;28.50;7.28;;;;;;;13.95;100.00;100568.25;5031844;28;20230;-80
2023/09/16 04:37:36;;;;;;;26.63;5.45;;;;;;;14.06;100.00;100588.59;5024302;28;20227;-80
2023/09/16 04:40:21;;;;;;;52.17;12.55;;;;;;;14.07;100.00;100600.13;5027073;28;20218;-81
2023/09/16 04:42:49;;;;;;;24.27;5.15;;;;;;;14.06;100.00;100601.00;5035382;28;20222;-80
2023/09/16 04:45:16;;;;;;;17.75;3.63;;;;;;;14.07;100.00;100603.66;5039629;28;20232;-80
2023/09/16 04:47:43;;;;;;;24.88;4.95;;;;;;;14.13;100.00;100608.06;5049121;28;20234;-80
2023/09/16 04:50:10;;;;;;;22.55;5.15;;;;;;;14.14;100.00;100609.84;5034818;28;20250;-80
2023/09/16 04:52:37;;;;;;;51.03;26.05;;;;;;;14.17;100.00;100611.63;5033926;28;20277;-79
2023/09/16 04:55:04;;;;;;;71.75;23.45;;;;;;;14.18;100.00;100616.94;5034948;28;20238;-81
2023/09/16 04:57:33;;;;;;;30.65;6.28;;;;;;;14.07;100.00;100613.41;5034340;28;20243;-79
2023/09/16 04:59:59;;;;;;;48.90;11.20;;;;;;;13.91;100.00;100601.03;5014303;28;20310;-79
2023/09/16 05:02:26;;;;;;;30.98;6.65;;;;;;;13.88;100.00;100603.69;5012916;28;20229;-79
2023/09/16 05:04:53;;;;;;;69.85;20.77;;;;;;;13.88;100.00;100606.38;5026123;28;20226;-79
2023/09/16 05:07:20;;;;;;;58.58;36.45;;;;;;;13.94;100.00;100612.56;5038406;28;20242;-79
2023/09/16 05:09:47;;;;;;;43.65;28.38;;;;;;;14.06;100.00;100631.13;5030339;28;20230;-78
2023/09/16 05:12:16;;;;;;;41.38;22.52;;;;;;;14.18;100.00;100646.19;5022329;28;20235;-79
2023/09/16 05:14:43;;;;;;;32.88;14.18;;;;;;;14.12;100.00;100646.19;5025113;28;20685;-78
2023/09/16 05:17:09;;;;;;;58.22;12.25;;;;;;;14.17;100.00;100652.41;5030579;28;20250;-77
2023/09/16 05:19:36;;;;;;;43.28;24.88;;;;;;;14.27;100.00;100667.44;5042400;28;20222;-77
2023/09/16 05:22:04;;;;;;;48.35;11.85;;;;;;;14.26;100.00;100656.81;5027410;28;20614;-77
2023/09/16 05:24:31;;;;;;;39.60;8.85;;;;;;;14.23;100.00;100659.47;5019436;28;20322;-78
2023/09/16 05:26:59;;;;;;;70.70;16.70;;;;;;;14.23;100.00;100671.00;5026992;28;20242;-78
2023/09/16 05:29:26;;;;;;;33.65;6.57;;;;;;;14.28;100.00;100669.22;5025009;28;20222;-79
2023/09/16 05:31:53;;;;;;;41.75;9.52;;;;;;;14.24;100.00;100675.44;5028487;28;20229;-78
2023/09/16 05:34:19;;;;;;;40.67;13.25;;;;;;;14.27;100.00;100671.88;5022119;28;20284;-78
2023/09/16 05:36:46;;;;;;;46.25;41.75;;;;;;;14.27;100.00;100677.19;5036483;28;20226;-78
2023/09/16 05:39:13;;;;;;;48.70;12.45;;;;;;;14.29;100.00;100680.75;5034626;28;20325;-77
2023/09/16 05:41:40;;;;;;;36.55;7.55;;;;;;;14.29;100.00;100681.63;5050425;28;20238;-79
2023/09/16 05:44:07;;;;;;;71.20;15.85;;;;;;;14.27;100.00;100686.06;5017357;28;20249;-78
2023/09/16 05:46:33;;;;;;;50.63;24.02;;;;;;;14.29;100.00;100692.28;5018278;28;20242;-78
2023/09/16 05:49:06;;;;;;;48.55;11.30;;;;;;;14.37;100.00;100700.25;5023019;28;20218;-79
2023/09/16 05:51:33;;;;;;;39.50;9.63;;;;;;;14.43;100.00;100708.28;5030137;28;20234;-79
2023/09/16 05:54:01;;;;;;;57.85;14.73;;;;;;;14.50;100.00;100711.81;5007672;28;20692;-79
2023/09/16 05:56:27;;;;;;;23.95;5.20;;;;;;;14.51;100.00;100716.22;5037714;28;20233;-79
2023/09/16 05:58:55;;;;;;;33.90;8.38;;;;;;;14.57;100.00;100717.09;5039150;28;20233;-79
2023/09/16 06:01:21;;;;;;;24.88;5.43;;;;;;;14.63;100.00;100714.41;5029602;28;20241;-79
2023/09/16 06:03:49;;;;;;;21.83;5.03;;;;;;;14.69;100.00;100727.72;5019434;28;20281;-79
2023/09/16 06:06:15;;;;;;;43.70;9.27;;;;;;;14.75;100.00;100724.16;5025561;28;20315;-78
2023/09/16 06:08:42;;;;;;;31.77;6.70;;;;;;;14.87;100.00;100732.09;5028042;28;20233;-80
2023/09/16 06:11:09;;;;;;;41.10;7.82;;;;;;;14.92;100.00;100718.75;5022795;28;20243;-80
2023/09/16 06:13:36;;;;;;;25.58;5.25;;;;;;;14.85;100.00;100715.22;5033477;28;20313;-80
2023/09/16 06:16:03;;;;;;;89.68;17.13;;;;;;;15.01;100.00;100727.59;5030379;28;20662;-80
2023/09/16 06:18:32;;;;;;;19.65;4.72;;;;;;;14.91;100.00;100714.31;5027203;28;20725;-79
2023/09/16 06:20:59;;;;;;;75.85;14.77;;;;;;;15.07;100.00;100734.66;5014510;28;20226;-80
2023/09/16 06:23:25;;;;;;;24.50;5.22;;;;;;;15.07;100.00;100729.34;5033680;28;20238;-79
2023/09/16 06:25:52;;;;;;;36.50;8.13;;;;;;;15.21;100.00;100739.94;5026120;28;20227;-80
2023/09/16 06:28:19;;;;;;;22.10;4.70;;;;;;;15.22;100.00;100744.38;5049121;28;20239;-80
2023/09/16 06:30:46;;;;;;;24.13;5.15;;;;;;;15.36;100.00;100755.84;5044574;28;20313;-80
2023/09/16 06:33:12;;;;;;;20.13;4.35;;;;;;;15.47;100.00;100769.09;5043279;28;20262;-80
2023/09/16 06:35:39;;;;;;;22.00;4.63;;;;;;;15.62;100.00;100779.75;5041768;28;20231;-80
2023/09/16 06:38:06;;;;;;;52.78;15.98;;;;;;;15.67;100.00;100769.94;5024938;28;20242;-81
2023/09/16 06:40:33;;;;;;;27.13;5.95;;;;;;;15.78;100.00;100776.06;5043831;28;20226;-81
2023/09/16 06:42:59;;;;;;;29.65;7.28;;;;;;;15.83;100.00;100782.25;5022202;28;20239;-81
2023/09/16 06:45:26;;;;;;;26.15;5.72;;;;;;;15.85;100.00;100776.91;5039466;28;20256;-81
2023/09/16 06:47:55;;;;;;;33.05;7.38;;;;;;;15.91;100.00;100776.88;5021878;28;20230;-81
2023/09/16 06:50:22;;;;;;;31.00;6.38;;;;;;;16.05;100.00;100795.44;5036955;28;20238;-80
2023/09/16 06:52:49;;;;;;;23.83;4.70;;;;;;;16.10;100.00;100786.50;5028862;28;20235;-81
2023/09/16 06:55:16;;;;;;;22.05;4.85;;;;;;;16.22;100.00;100793.53;5039585;28;20234;-81
2023/09/16 06:57:44;;;;;;;29.83;6.30;;;;;;;16.23;100.00;100784.63;5025160;28;20218;-81
2023/09/16 07:00:13;;;;;;;27.25;6.25;;;;;;;16.26;100.00;100769.47;5028108;28;20271;-81
2023/09/16 07:02:39;;;;;;;54.35;19.13;;;;;;;16.35;100.00;100773.84;5027862;28;20230;-81
2023/09/16 07:05:07;;;;;;;65.97;29.90;;;;;;;16.42;100.00;100764.00;5037231;28;20229;-82
2023/09/16 07:07:33;;;;;;;32.78;19.98;;;;;;;16.49;100.00;100760.34;5041382;28;20740;-81
2023/09/16 07:10:00;;;;;;;44.92;12.32;;;;;;;16.66;100.00;100762.88;5016730;28;20231;-79
2023/09/16 07:12:27;;;;;;;35.70;7.95;;;;;;;16.66;100.00;100749.53;5014731;28;20238;-79
2023/09/16 07:14:54;;;;;;;79.25;18.20;;;;;;;16.72;100.00;100738.78;5022742;28;20337;-79
2023/09/16 07:17:21;;;;;;;30.38;6.03;;;;;;;16.75;100.00;100739.63;5031323;28;20231;-79
2023/09/16 07:19:47;;;;;;;26.17;5.60;;;;;;;16.88;100.00;100735.91;5030073;28;20234;-79
2023/09/16 07:22:14;;;;;;;26.05;5.22;;;;;;;17.08;100.00;100741.06;5020016;28;20662;-79
2023/09/16 07:24:41;;;;;;;31.80;6.50;;;;;;;17.11;100.00;100732.09;5025962;28;20239;-80
2023/09/16 07:27:08;;;;;;;66.22;15.10;;;;;;;17.21;100.00;100723.94;5031640;28;20276;-80
2023/09/16 07:29:34;;;;;;;39.85;7.95;;;;;;;17.25;100.00;100714.97;5032276;28;20228;-80
2023/09/16 07:32:01;;;;;;;55.83;12.32;;;;;;;17.40;100.00;100708.53;5030609;28;20238;-79
2023/09/16 07:34:28;;;;;;;47.17;9.50;;;;;;;17.48;100.00;100700.41;5031691;28;20234;-80
2023/09/16 07:36:56;;;;;;;45.55;11.00;;;;;;;17.73;100.00;100703.63;5027602;28;20219;-79
2023/09/16 07:39:23;;;;;;;25.48;5.78;;;;;;;17.69;100.00;100665.34;5024205;28;20299;-80
2023/09/16 07:41:50;;;;;;;30.10;6.63;;;;;;;17.62;100.00;100644.91;5024834;28;20241;-82
2023/09/16 07:44:16;;;;;;;32.35;6.82;;;;;;;17.71;100.00;100642.13;5023628;28;20235;-80
2023/09/16 07:46:43;;;;;;;29.08;6.88;;;;;;;17.92;100.00;100633.72;5017662;28;20253;-80
2023/09/16 07:49:10;;;;;;;24.80;5.00;;;;;;;17.94;100.00;100619.44;5030773;28;20328;-80
2023/09/16 07:51:39;;;;;;;32.70;6.75;;;;;;;17.89;100.00;100604.34;5027900;28;20234;-81
2023/09/16 07:54:09;;;;;;;57.63;13.05;;;;;;;18.08;100.00;100604.00;5020807;28;20314;-80
2023/09/16 07:56:36;;;;;;;18.40;4.13;;;;;;;18.16;100.00;100605.63;5020326;28;20227;-79
2023/09/16 07:59:04;;;;;;;62.67;13.75;;;;;;;18.41;100.00;100618.56;5011939;28;20222;-80
2023/09/16 08:01:31;;;;;;;33.97;7.57;;;;;;;18.47;100.00;100615.75;5023630;28;20242;-81
2023/09/16 08:03:58;;;;;;;66.97;15.18;;;;;;;18.47;100.00;100613.06;5013419;28;20241;-80
2023/09/16 08:06:26;;;;;;;35.53;7.18;;;;;;;18.44;100.00;100599.75;5030649;28;20361;-80
2023/09/16 08:08:54;;;;;;;33.95;7.82;;;;;;;18.51;100.00;100590.66;5005301;28;20272;-80
2023/09/16 08:11:21;;;;;;;42.25;8.88;;;;;;;18.79;100.00;100591.88;5021507;28;20572;-80
2023/09/16 08:13:47;;;;;;;43.53;8.95;;;;;;;18.85;100.00;100581.00;5039739;28;20237;-80
2023/09/16 08:16:14;;;;;;;29.48;7.00;;;;;;;18.94;100.00;100561.16;5036349;28;20231;-80
2023/09/16 08:18:41;;;;;;;27.10;6.30;;;;;;;18.96;100.00;100562.00;5020943;28;20313;-80
2023/09/16 08:21:08;;;;;;;97.82;20.92;;;;;;;19.06;100.00;100571.59;5015540;28;20250;-80
2023/09/16 08:23:35;;;;;;;25.75;5.65;;;;;;;19.09;100.00;100571.53;5029723;28;20659;-79
2023/09/16 08:26:02;;;;;;;46.67;10.70;;;;;;;19.24;100.00;100569.41;5016121;28;20294;-80
2023/09/16 08:28:30;;;;;;;18.08;4.10;;;;;;;19.36;100.00;100561.94;5037922;28;20238;-80
2023/09/16 08:30:57;;;;;;;41.92;9.75;;;;;;;19.64;100.00;100574.69;5036504;28;20234;-80
2023/09/16 08:33:24;;;;;;;23.95;5.88;;;;;;;19.66;100.00;100554.09;5037226;28;20240;-80
2023/09/16 08:35:51;;;;;;;29.35;6.28;;;;;;;19.62;100.00;100533.63;5032026;28;20311;-82
2023/09/16 08:38:17;;;;;;;26.02;5.40;;;;;;;19.79;100.00;100542.97;5034454;28;20234;-81
2023/09/16 08:40:46;;;;;;;30.38;6.25;;;;;;;19.96;100.00;100530.91;5026457;28;20227;-81
2023/09/16 08:43:21;;;;;;;23.38;5.10;;;;;;;20.25;100.00;100532.75;5025519;28;20685;-81
2023/09/16 08:46:00;;;;;;;43.22;9.35;;;;;;;20.23;100.00;100518.50;5040677;28;20685;-80
2023/09/16 08:48:34;;;;;;;28.67;6.38;;;;;;;20.31;100.00;100505.72;5042565;28;20299;-82
2023/09/16 08:51:04;;;;;;;39.63;10.10;;;;;;;20.44;100.00;100501.78;5038059;28;20234;-81
2023/09/16 08:53:35;;;;;;;33.10;7.10;;;;;;;20.37;100.00;100481.34;5036027;28;20278;-81
2023/09/16 08:56:02;;;;;;;48.55;11.77;;;;;;;20.42;100.00;100477.63;5012675;28;20235;-82
2023/09/16 08:58:34;;;;;;;34.13;6.78;;;;;;;20.61;100.00;100479.75;5029095;28;20237;-81
2023/09/16 09:01:02;;;;;;;53.17;12.07;;;;;;;20.78;100.00;100491.72;5022760;28;20226;-81
2023/09/16 09:03:30;;;;;;;22.00;4.90;;;;;;;20.87;100.00;100482.53;5030055;28;20678;-81
2023/09/16 09:05:58;;;;;;;65.70;15.32;;;;;;;21.14;100.00;100474.47;5022396;28;20236;-81
2023/09/16 09:08:24;;;;;;;22.75;5.40;;;;;;;21.44;100.00;100465.38;5019115;28;20241;-81
2023/09/16 09:10:51;;;;;;;30.33;15.95;;;;;;;21.31;100.00;100435.34;5010218;28;20592;-81
2023/09/16 09:13:19;;;;;;;31.63;21.75;;;;;;;21.43;100.00;100420.56;5020696;28;20238;-81
2023/09/16 09:15:47;;;;;;;54.53;11.73;;;;;;;21.64;100.00;100422.50;5017424;28;20245;-81
2023/09/16 09:18:17;;;;;;;29.85;11.45;;;;;;;21.69;100.00;100404.34;5024655;28;20238;-81
2023/09/16 09:20:43;;;;;;;42.58;8.90;;;;;;;21.95;100.00;100395.28;5032546;28;20868;-81
2023/09/16 09:23:10;;;;;;;36.60;12.90;;;;;;;22.10;100.00;100391.16;5011280;28;20245;-81
2023/09/16 09:25:41;;;;;;;36.80;31.45;;;;;;;22.00;100.00;100358.28;5038967;28;20288;-80
2023/09/16 09:28:08;;;;;;;60.95;14.43;;;;;;;22.38;100.00;100392.78;5015910;28;20240;-80
2023/09/16 09:30:35;;;;;;;47.92;8.20;;;;;;;22.32;100.00;100357.06;5023134;28;20234;-82
2023/09/16 09:33:11;;;;;;;61.08;14.43;;;;;;;22.54;100.00;100361.59;5027601;28;20249;-80
2023/09/16 09:35:37;;;;;;;40.28;24.98;;;;;;;22.70;100.00;100357.31;5037878;28;20234;-80
2023/09/16 09:38:04;;;;;;;46.78;13.35;;;;;;;22.68;100.00;100327.72;5034722;28;20225;-80
2023/09/16 09:40:31;;;;;;;48.50;43.55;;;;;;;23.27;100.00;100374.66;5012630;28;20230;-80
2023/09/16 09:42:59;;;;;;;65.78;19.25;;;;;;;23.38;100.00;100366.97;5023125;28;20245;-82
2023/09/16 09:45:28;;;;;;;51.75;46.38;;;;;;;23.00;100.00;100274.25;5036421;28;20276;-82
2023/09/16 09:47:55;;;;;;;73.97;56.13;;;;;;;23.54;100.00;100340.19;5025390;28;20246;-82
2023/09/16 09:50:22;;;;;;;61.22;54.33;;;;;;;23.79;100.00;100323.75;5021362;28;20313;-81
2023/09/16 09:52:54;;;;;;;49.10;41.38;;;;;;;24.58;100.00;100399.19;5009459;28;20235;-81
2023/09/16 09:55:22;;;;;;;43.28;31.02;;;;;;;24.33;100.00;100295.91;5026676;28;20242;-80
2023/09/16 09:57:51;;;;;;;26.20;10.45;;;;;;;24.38;100.00;100266.84;5031163;28;20244;-81
2023/09/16 10:00:19;;;;;;;39.90;15.20;;;;;;;24.79;100.00;100289.06;4998860;28;20234;-81
2023/09/16 10:02:47;;;;;;;37.28;14.10;;;;;;;24.71;100.00;100231.81;5018715;28;20229;-81
2023/09/16 10:05:16;;;;;;;25.30;5.43;;;;;;;24.53;100.00;100174.13;5032210;28;20287;-80
2023/09/16 10:07:43;;;;;;;29.27;6.03;;;;;;;24.57;100.00;100154.09;5031464;28;20671;-81
2023/09/16 10:10:25;;;;;;;29.17;6.20;;;;;;;25.06;100.00;100178.56;5014100;28;20257;-81
2023/09/16 10:12:53;;;;;;;25.88;5.65;;;;;;;24.95;100.00;100110.59;5026748;28;20246;-82
2023/09/16 10:15:25;;;;;;;24.52;5.22;;;;;;;25.42;100.00;100144.97;5028770;28;20313;-81
2023/09/16 10:17:51;;;;;;;35.22;7.22;;;;;;;24.99;100.00;100049.13;5021460;28;20239;-82
2023/09/16 10:20:19;;;;;;;24.38;5.85;;;;;;;25.26;100.00;100062.91;5022553;28;20253;-81
2023/09/16 10:22:45;;;;;;;40.75;8.93;;;;;;;25.01;100.00;99993.97;5020202;28;20260;-81
2023/09/16 10:25:12;;;;;;;36.67;7.90;;;;;;;25.50;100.00;100053.38;5041102;28;20237;-82
2023/09/16 10:27:52;;;;;;;33.20;13.00;;;;;;;25.60;100.00;100007.66;5022924;28;20286;-82
2023/09/16 10:30:19;;;;;;;33.75;8.98;;;;;;;25.96;100.00;100035.28;5022983;28;20229;-82
2023/09/16 10:32:46;;;;;;;37.47;8.77;;;;;;;26.05;100.00;99996.81;5037588;28;20225;-82
2023/09/16 10:35:13;;;;;;;24.90;6.25;;;;;;;25.56;100.00;99904.09;5034526;28;20653;-81
2023/09/16 10:37:41;;;;;;;30.17;6.45;;;;;;;26.20;100.00;99992.28;5034930;28;20221;-82
2023/09/16 10:40:09;;;;;;;50.22;15.63;;;;;;;26.52;100.00;99976.72;5040295;28;20237;-80
2023/09/16 10:42:37;;;;;;;41.90;11.45;;;;;;;26.52;100.00;99946.00;5021387;28;20285;-81
2023/09/16 10:45:04;;;;;;;42.85;9.93;;;;;;;26.71;100.00;99947.44;5025338;28;20230;-82
2023/09/16 10:47:31;;;;;;;27.02;8.77;;;;;;;26.53;100.00;99871.81;5024528;28;20222;-82
2023/09/16 10:49:57;;;;;;;59.63;13.27;;;;;;;27.34;100.00;99967.72;5018795;28;20246;-81
2023/09/16 10:52:41;;;;;;;26.63;12.32;;;;;;;28.46;100.00;100058.75;5034812;28;20295;-82
2023/09/16 10:55:35;;;;;;;57.42;22.83;;;;;;;27.50;100.00;99813.63;5034868;28;20221;-82
2023/09/16 10:58:09;;;;;;;100.82;35.47;;;;;;;27.34;100.00;99773.13;5034187;28;20271;-81
2023/09/16 11:00:47;;;;;;;27.35;6.25;;;;;;;27.23;100.00;99745.81;4981897;28;20252;-81
2023/09/16 11:03:14;;;;;;;19.30;4.60;;;;;;;27.03;100.00;99692.94;5016373;28;20589;-82
2023/09/16 11:05:42;;;;;;;20.45;4.63;;;;;;;27.04;100.00;99675.69;5014835;28;20232;-82
2023/09/16 11:08:09;;;;;;;61.65;13.18;;;;;;;27.50;100.00;99756.59;5008623;28;20412;-81
2023/09/16 11:10:36;;;;;;;16.63;5.35;;;;;;;28.04;100.00;99791.63;5032025;28;20226;-83